createdAt,value
2019-04-27T09:34:36.726Z,18.20
2019-04-27T09:37:06.112Z,17.17
2019-04-27T09:39:35.865Z,17.13
2019-04-27T09:42:06.568Z,17.33
2019-04-27T09:44:37.113Z,17.40
2019-04-27T09:47:06.257Z,17.60
2019-04-27T09:49:36.685Z,17.50
2019-04-27T09:52:06.327Z,16.83
2019-04-27T09:54:36.538Z,17.80
2019-04-27T09:57:06.955Z,17.40
2019-04-27T09:59:39.357Z,19.97
2019-04-27T10:02:08.626Z,18.87
2019-04-27T10:04:37.569Z,19.73
2019-04-27T10:07:06.721Z,17.43
2019-04-27T10:09:36.835Z,17.83
2019-04-27T10:12:07.410Z,21.13
2019-04-27T10:14:36.555Z,19.10
2019-04-27T10:17:05.512Z,17.73
2019-04-27T10:19:34.276Z,18.10
2019-04-27T10:22:03.119Z,17.77
2019-04-27T10:24:32.210Z,18.00
2019-04-27T10:27:00.949Z,17.57
2019-04-27T10:29:29.689Z,16.67
2019-04-27T10:31:58.474Z,15.80
2019-04-27T10:34:27.560Z,17.30
2019-04-27T10:36:56.385Z,18.20
2019-04-27T10:39:25.747Z,18.07
2019-04-27T10:41:56.328Z,14.63
2019-04-27T10:44:26.670Z,14.33
2019-04-27T10:46:56.872Z,13.53
2019-04-27T10:49:25.669Z,13.30
2019-04-27T10:51:55.770Z,13.23
2019-04-27T10:54:24.721Z,13.00
2019-04-27T10:56:53.587Z,13.78
2019-04-27T10:59:22.357Z,12.82
2019-04-27T11:01:52.546Z,13.22
2019-04-27T11:04:46.119Z,18.03
2019-04-27T11:07:16.765Z,19.00
2019-04-27T11:09:45.898Z,17.73
2019-04-27T11:12:15.853Z,18.07
2019-04-27T11:14:45.167Z,18.53
2019-04-27T11:17:14.010Z,18.67
2019-04-27T11:19:42.901Z,17.90
2019-04-27T11:22:11.973Z,19.03
2019-04-27T11:24:41.163Z,18.43
2019-04-27T11:27:10.238Z,18.30
2019-04-27T11:29:39.041Z,17.53
2019-04-27T11:32:08.249Z,17.33
2019-04-27T11:34:55.861Z,15.13
2019-04-27T11:37:31.452Z,13.57
2019-04-27T11:40:00.433Z,9.78
2019-04-27T11:42:29.486Z,9.90
2019-04-27T11:44:59.063Z,8.55
2019-04-27T11:47:28.114Z,9.50
2019-04-27T11:49:57.937Z,9.65
2019-04-27T11:52:26.900Z,12.07
2019-04-27T11:54:55.961Z,11.00
2019-04-27T11:57:24.742Z,11.45
2019-04-27T11:59:53.553Z,10.53
2019-04-27T12:02:22.356Z,10.87
2019-04-27T12:04:51.194Z,7.70
2019-04-27T12:07:19.961Z,5.80
2019-04-27T12:09:48.709Z,5.90
2019-04-27T12:12:21.743Z,7.92
2019-04-27T12:14:48.613Z,8.43
2019-04-27T12:17:17.488Z,9.20
2019-04-27T12:19:46.949Z,8.83
2019-04-27T12:22:16.403Z,9.90
2019-04-27T12:24:45.804Z,8.30
2019-04-27T12:27:40.016Z,7.10
2019-04-27T12:30:21.464Z,9.40
2019-04-27T12:32:50.402Z,6.77
2019-04-27T12:35:19.182Z,7.63
2019-04-27T12:37:48.882Z,9.63
2019-04-27T12:40:18.701Z,7.27
2019-04-27T12:42:47.425Z,7.33
2019-04-27T12:45:18.229Z,7.30
2019-04-27T12:47:47.929Z,8.30
2019-04-27T12:50:17.444Z,8.13
2019-04-27T12:52:48.293Z,7.90
2019-04-27T12:55:36.589Z,9.80
2019-04-27T12:58:19.183Z,7.67
2019-04-27T13:00:51.141Z,8.53
2019-04-27T13:03:22.203Z,8.73
2019-04-27T13:05:51.986Z,8.20
2019-04-27T13:08:20.810Z,8.05
2019-04-27T13:10:49.601Z,6.20
2019-04-27T13:13:19.802Z,6.30
2019-04-27T13:15:50.849Z,6.42
2019-04-27T13:18:23.377Z,6.45
2019-04-27T13:20:52.313Z,5.78
2019-04-27T13:23:21.166Z,6.70
2019-04-27T13:25:49.915Z,6.30
2019-04-27T13:28:20.525Z,6.28
2019-04-27T13:30:49.500Z,6.80
2019-04-27T13:33:18.343Z,6.03
2019-04-27T13:35:47.493Z,5.80
2019-04-27T13:38:18.134Z,5.40
2019-04-27T13:41:05.889Z,5.47
2019-04-27T13:43:36.257Z,5.57
2019-04-27T13:46:12.460Z,6.28
2019-04-27T13:48:59.344Z,7.00
2019-04-27T13:51:43.212Z,6.47
2019-04-27T13:54:18.732Z,6.22
2019-04-27T13:56:42.648Z,6.00
2019-04-27T13:59:12.897Z,7.80
2019-04-27T14:01:42.029Z,5.42
2019-04-27T14:04:11.005Z,6.40
2019-04-27T14:06:41.706Z,5.67
2019-04-27T14:09:12.648Z,5.95
2019-04-27T14:11:41.582Z,5.25
2019-04-27T14:14:10.426Z,6.40
2019-04-27T14:16:39.693Z,5.03
2019-04-27T14:19:08.566Z,5.40
2019-04-27T14:21:39.111Z,8.98
2019-04-27T14:24:08.153Z,10.53
2019-04-27T14:26:38.612Z,9.80
2019-04-27T14:29:08.753Z,8.80
2019-04-27T14:31:39.481Z,9.08
2019-04-27T14:34:09.102Z,8.30
2019-04-27T14:36:40.311Z,6.90
2019-04-27T14:39:11.132Z,7.20
2019-04-27T14:41:40.615Z,7.75
2019-04-27T14:44:10.714Z,7.75
2019-04-27T14:46:41.987Z,8.50
2019-04-27T14:49:10.799Z,9.68
2019-04-27T14:51:40.181Z,10.00
2019-04-27T14:54:09.419Z,9.08
2019-04-27T14:56:38.791Z,9.58
2019-04-27T14:59:07.882Z,9.00
2019-04-27T15:01:39.437Z,9.48
2019-04-27T15:04:07.783Z,8.80
2019-04-27T15:06:36.571Z,9.50
2019-04-27T15:09:07.500Z,9.25
2019-04-27T15:11:36.417Z,8.63
2019-04-27T15:14:05.784Z,7.78
2019-04-27T15:16:37.915Z,8.03
2019-04-27T15:19:13.242Z,8.70
2019-04-27T15:21:43.288Z,8.23
2019-04-27T15:24:13.671Z,7.92
2019-04-27T15:26:41.316Z,8.18
2019-04-27T15:29:12.144Z,7.90
2019-04-27T15:31:46.001Z,9.15
2019-04-27T15:34:23.387Z,9.03
2019-04-27T15:37:15.128Z,9.18
2019-04-27T15:39:53.093Z,10.43
2019-04-27T15:42:29.757Z,10.28
2019-04-27T15:44:58.604Z,9.95
2019-04-27T15:47:28.596Z,9.70
2019-04-27T15:49:58.948Z,10.53
2019-04-27T15:52:30.177Z,11.68
2019-04-27T15:54:58.305Z,12.23
2019-04-27T15:57:27.937Z,12.18
2019-04-27T15:59:58.437Z,12.70
2019-04-27T16:02:28.915Z,11.30
2019-04-27T16:04:58.337Z,11.20
2019-04-27T16:07:30.361Z,10.15
2019-04-27T16:10:00.884Z,9.73
2019-04-27T16:12:28.467Z,9.88
2019-04-27T16:14:58.017Z,9.67
2019-04-27T16:17:29.418Z,10.00
2019-04-27T16:19:58.091Z,10.85
2019-04-27T16:22:27.750Z,10.00
2019-04-27T16:24:58.112Z,8.90
2019-04-27T16:27:31.455Z,9.40
2019-04-27T16:29:57.870Z,9.45
2019-04-27T16:32:28.461Z,7.00
2019-04-27T16:34:59.262Z,6.85
2019-04-27T16:37:38.808Z,6.47
2019-04-27T16:40:08.383Z,5.72
2019-04-27T16:42:40.665Z,5.65
2019-04-27T16:45:09.232Z,5.67
2019-04-27T16:47:38.416Z,5.78
2019-04-27T16:50:08.363Z,5.62
2019-04-27T16:52:39.008Z,5.62
2019-04-27T16:55:08.668Z,6.10
2019-04-27T16:57:40.036Z,6.95
2019-04-27T17:00:11.385Z,6.22
2019-04-27T17:02:40.465Z,5.50
2019-04-27T17:05:09.942Z,5.70
2019-04-27T17:07:41.742Z,5.80
2019-04-27T17:10:09.669Z,5.72
2019-04-27T17:12:43.292Z,6.60
2019-04-27T17:15:30.031Z,5.90
2019-04-27T17:18:20.005Z,7.62
2019-04-27T17:20:48.428Z,7.03
2019-04-27T17:23:29.062Z,8.97
2019-04-27T17:26:05.996Z,9.30
2019-04-27T17:28:37.547Z,8.13
2019-04-27T17:31:06.244Z,7.90
2019-04-27T17:33:38.135Z,7.50
2019-04-27T17:36:08.023Z,7.57
2019-04-27T17:38:38.502Z,6.80
2019-04-27T17:41:11.086Z,7.10
2019-04-27T17:43:41.530Z,5.90
2019-04-27T17:46:11.645Z,5.50
2019-04-27T17:48:38.701Z,5.97
2019-04-27T17:51:08.941Z,5.80
2019-04-27T17:53:37.903Z,5.57
2019-04-27T17:56:08.545Z,4.83
2019-04-27T17:58:39.843Z,4.07
2019-04-27T18:01:13.835Z,4.40
2019-04-27T18:03:40.848Z,3.70
2019-04-27T18:06:09.926Z,3.13
2019-04-27T18:08:40.359Z,3.20
2019-04-27T18:11:09.437Z,2.73
2019-04-27T18:13:38.784Z,2.60
2019-04-27T18:16:09.225Z,2.43
2019-04-27T18:18:49.053Z,1.90
2019-04-27T18:21:19.686Z,2.37
2019-04-27T18:23:55.134Z,2.00
2019-04-27T18:26:29.528Z,2.30
2019-04-27T18:29:01.606Z,3.60
2019-04-27T18:31:29.077Z,4.00
2019-04-27T18:33:58.896Z,4.37
2019-04-27T18:36:29.518Z,3.70
2019-04-27T18:38:58.787Z,3.63
2019-04-27T18:41:28.769Z,4.13
2019-04-27T18:43:59.915Z,4.70
2019-04-27T18:46:28.392Z,4.33
2019-04-27T18:49:18.087Z,4.40
2019-04-27T18:52:08.942Z,4.60
2019-04-27T18:54:41.992Z,4.00
2019-04-27T18:57:10.714Z,3.90
2019-04-27T18:59:38.790Z,4.10
2019-04-27T19:02:08.493Z,3.60
2019-04-27T19:04:37.556Z,4.20
2019-04-27T19:07:06.378Z,3.90
2019-04-27T19:09:35.137Z,3.73
2019-04-27T19:12:04.496Z,3.90
2019-04-27T19:14:33.232Z,3.70
2019-04-27T19:17:01.994Z,3.70
2019-04-27T19:19:31.068Z,3.23
2019-04-27T19:21:59.902Z,3.10
2019-04-27T19:24:28.756Z,3.10
2019-04-27T19:27:16.209Z,3.30
2019-04-27T19:29:41.811Z,3.20
2019-04-27T19:32:10.766Z,3.40
2019-04-27T19:34:39.712Z,4.00
2019-04-27T19:37:08.476Z,3.27
2019-04-27T19:39:39.362Z,3.10
2019-04-27T19:42:08.477Z,2.90
2019-04-27T19:44:38.949Z,2.63
2019-04-27T19:47:07.804Z,3.50
2019-04-27T19:49:38.706Z,3.50
2019-04-27T19:52:08.660Z,3.87
2019-04-27T19:54:39.835Z,2.90
2019-04-27T19:57:09.191Z,2.50
2019-04-27T19:59:48.671Z,3.10
2019-04-27T20:02:20.296Z,3.60
2019-04-27T20:04:55.570Z,3.30
2019-04-27T20:07:24.608Z,3.13
2019-04-27T20:10:01.137Z,3.37
2019-04-27T20:12:31.366Z,3.77
2019-04-27T20:15:02.234Z,3.53
2019-04-27T20:17:32.338Z,3.30
2019-04-27T20:20:01.911Z,3.47
2019-04-27T20:22:30.885Z,3.67
2019-04-27T20:25:01.397Z,3.50
2019-04-27T20:27:32.139Z,3.47
2019-04-27T20:30:02.930Z,3.70
2019-04-27T20:32:31.576Z,3.80
2019-04-27T20:35:01.448Z,4.00
2019-04-27T20:37:31.399Z,4.20
2019-04-27T20:40:01.651Z,3.70
2019-04-27T20:42:31.433Z,4.50
2019-04-27T20:45:01.932Z,4.40
2019-04-27T20:47:32.026Z,5.10
2019-04-27T20:50:01.452Z,4.93
2019-04-27T20:52:52.507Z,5.03
2019-04-27T20:55:21.504Z,5.50
2019-04-27T20:57:59.686Z,5.13
